This is the latest recevied weather packets stored in our database for station/object JF7BTK-10. If no packets are shown the sender has not sent any weather packets the latest 10 day(s).
| Time | Temp. | Humidity | Pressure | Rain* | Wind** | Luminosity | Snow |
|---|---|---|---|---|---|---|---|
| 1777501733 | 12.22° C | 61% | 1014 hPa | 0 mm | - | - | - |
| 1777500833 | 12.22° C | 63% | 1014.1 hPa | 0 mm | - | - | - |
| 1777499932 | 11.67° C | 66% | 1014.1 hPa | 0 mm | - | - | - |
| 1777499033 | 10.56° C | 70% | 1014.1 hPa | 0 mm | - | - | - |
| 1777498133 | 10.56° C | 72% | 1014 hPa | 0 mm | - | - | - |
| 1777497233 | 9.44° C | 78% | 1014.2 hPa | 0 mm | - | - | - |
| 1777496333 | 8.33° C | 83% | 1013.8 hPa | 0 mm | - | - | - |
| 1777494532 | 6.67° C | 95% | 1013.9 hPa | 0 mm | - | - | - |
| 1777493632 | 5.56° C | 95% | 1013.6 hPa | 0 mm | - | - | - |
| 1777492732 | 5° C | 94% | 1013.5 hPa | 0 mm | - | - | - |
| 1777490932 | 3.89° C | 93% | 1013.5 hPa | 0 mm | - | - | - |
| 1777490033 | 3.89° C | 93% | 1013.7 hPa | 0 mm | - | - | - |
| 1777489133 | 3.89° C | 92% | 1013.8 hPa | 0 mm | - | - | - |
| 1777488233 | 3.89° C | 92% | 1013.6 hPa | 0 mm | - | - | - |
| 1777487333 | 3.89° C | 91% | 1013.7 hPa | 0 mm | - | - | - |
| 1777485533 | 3.89° C | 91% | 1013.6 hPa | 0 mm | - | - | - |
| 1777483734 | 3.89° C | 90% | 1013.9 hPa | 0 mm | - | - | - |
| 1777482834 | 3.89° C | 88% | 1013.8 hPa | 0 mm | - | - | - |
| 1777481032 | 5° C | 89% | 1013.6 hPa | 0 mm | - | - | - |
| 1777480134 | 5.56° C | 90% | 1013.5 hPa | 0 mm | - | - | - |
| 1777479234 | 5.56° C | 90% | 1013.6 hPa | 0 mm | - | - | - |
| 1777478334 | 6.11° C | 90% | 1013.7 hPa | 0 mm | - | - | - |
| 1777477052 | 6.11° C | 90% | 1013.9 hPa | 0 mm | - | - | - |
| 1777476532 | 6.11° C | 90% | 1013.8 hPa | 0 mm | - | - | - |
| 1777472030 | 7.22° C | 82% | 1013.8 hPa | 0 mm | - | - | - |
* Rain latest hour (hover to see other rain measurements)
** Current wind speed in m/s (hover to see current wind gust speed)